createdAt,value
2019-02-04T00:01:20.811Z,25.77
2019-02-04T00:04:03.839Z,29.00
2019-02-04T00:06:46.211Z,28.83
2019-02-04T00:09:28.522Z,29.00
2019-02-04T00:12:11.181Z,31.03
2019-02-04T00:14:53.213Z,31.07
2019-02-04T00:17:35.250Z,26.40
2019-02-04T00:20:16.879Z,25.80
2019-02-04T00:22:58.646Z,28.80
2019-02-04T00:25:41.168Z,26.60
2019-02-04T00:28:23.259Z,28.70
2019-02-04T00:31:05.676Z,30.30
2019-02-04T00:33:47.683Z,27.60
2019-02-04T00:36:30.029Z,31.00
2019-02-04T00:39:11.872Z,28.87
2019-02-04T00:41:55.234Z,28.10
2019-02-04T00:44:37.069Z,27.17
2019-02-04T00:47:19.362Z,27.40
2019-02-04T00:50:01.649Z,25.80
2019-02-04T00:52:44.217Z,27.33
2019-02-04T00:55:26.147Z,25.67
2019-02-04T00:58:08.097Z,25.10
2019-02-04T01:00:50.231Z,26.27
2019-02-04T01:03:31.853Z,24.50
2019-02-04T01:06:15.174Z,26.50
2019-02-04T01:14:47.504Z,26.73
2019-02-04T01:17:30.508Z,28.00
2019-02-04T01:20:00.623Z,24.33
2019-02-04T01:22:49.762Z,24.30
2019-02-04T01:25:31.538Z,25.97
2019-02-04T01:28:14.103Z,26.03
2019-02-04T01:30:55.926Z,25.67
2019-02-04T01:33:38.419Z,24.63
2019-02-04T01:36:20.293Z,23.33
2019-02-04T01:39:02.169Z,25.53
2019-02-04T01:41:44.780Z,23.43
2019-02-04T01:44:26.637Z,22.57
2019-02-04T01:47:14.547Z,24.23
2019-02-04T01:49:52.881Z,23.37
2019-02-04T01:52:34.906Z,23.47
2019-02-04T01:55:17.115Z,22.63
2019-02-04T01:57:59.679Z,22.13
2019-02-04T02:00:41.663Z,20.97
2019-02-04T02:03:23.561Z,21.30
2019-02-04T02:06:06.696Z,20.90
2019-02-04T02:08:51.746Z,21.53
2019-02-04T02:11:34.609Z,20.73
2019-02-04T02:14:16.117Z,20.57
2019-02-04T02:16:57.981Z,19.53
2019-02-04T02:19:40.034Z,20.30
2019-02-04T02:22:21.729Z,19.97
2019-02-04T02:25:04.198Z,20.50
2019-02-04T02:27:46.980Z,19.77
2019-02-04T02:30:29.458Z,19.10
2019-02-04T02:33:11.394Z,20.63
2019-02-04T02:35:53.398Z,19.30
2019-02-04T02:38:36.616Z,19.23
2019-02-04T02:41:18.829Z,19.03
2019-02-04T02:44:00.934Z,17.83
2019-02-04T02:46:44.293Z,19.00
2019-02-04T02:49:26.458Z,18.30
2019-02-04T02:52:08.923Z,17.40
2019-02-04T02:54:50.550Z,18.10
2019-02-04T02:57:34.527Z,17.10
2019-02-04T03:00:16.595Z,16.73
2019-02-04T03:02:59.759Z,16.67
2019-02-04T03:05:41.717Z,16.87
2019-02-04T03:08:23.733Z,15.60
2019-02-04T03:11:05.863Z,16.27
2019-02-04T03:13:47.532Z,15.93
2019-02-04T03:16:29.535Z,16.07
2019-02-04T03:19:10.953Z,15.53
2019-02-04T03:21:55.687Z,15.33
2019-02-04T03:24:37.938Z,14.23
2019-02-04T03:27:19.539Z,14.37
2019-02-04T03:30:01.063Z,14.60
2019-02-04T03:32:42.951Z,14.17
2019-02-04T03:35:25.477Z,13.73
2019-02-04T03:38:16.028Z,14.10
2019-02-04T03:41:16.366Z,13.83
2019-02-04T03:43:59.313Z,13.00
2019-02-04T03:46:41.325Z,12.87
2019-02-04T03:49:23.196Z,12.77
2019-02-04T03:52:04.575Z,13.10
2019-02-04T03:54:46.904Z,12.53
2019-02-04T03:57:28.277Z,13.07
2019-02-04T04:00:10.698Z,13.13
2019-02-04T04:02:40.842Z,12.63
2019-02-04T04:05:10.951Z,13.30
2019-02-04T04:07:40.989Z,14.17
2019-02-04T04:10:11.551Z,14.07
2019-02-04T04:12:41.652Z,13.87
2019-02-04T04:15:11.964Z,14.07
2019-02-04T04:17:42.837Z,14.27
2019-02-04T04:20:15.350Z,13.40
2019-02-04T04:22:45.465Z,13.27
2019-02-04T04:25:16.881Z,13.63
2019-02-04T04:27:47.140Z,13.50
2019-02-04T04:30:19.581Z,12.80
2019-02-04T04:32:49.974Z,13.73
2019-02-04T04:35:19.989Z,12.90
2019-02-04T04:37:50.055Z,12.93
2019-02-04T04:40:20.139Z,12.33
2019-02-04T04:42:50.274Z,12.40
2019-02-04T04:45:22.009Z,12.57
2019-02-04T04:47:52.607Z,11.70
2019-02-04T04:50:22.829Z,11.00
2019-02-04T04:52:53.218Z,11.47
2019-02-04T04:55:27.267Z,11.70
2019-02-04T04:57:57.368Z,10.23
2019-02-04T05:00:30.894Z,10.67
2019-02-04T05:03:01.071Z,10.33
2019-02-04T05:05:31.151Z,10.93
2019-02-04T05:08:01.315Z,9.60
2019-02-04T05:10:31.372Z,9.77
2019-02-04T05:13:01.882Z,10.10
2019-02-04T05:15:31.940Z,9.17
2019-02-04T05:18:01.986Z,9.00
2019-02-04T05:20:32.029Z,9.40
2019-02-04T05:23:02.169Z,9.17
2019-02-04T05:25:32.341Z,9.17
2019-02-04T05:28:02.496Z,9.03
2019-02-04T05:30:32.578Z,9.03
2019-02-04T05:33:02.726Z,8.87
2019-02-04T05:35:32.898Z,8.53
2019-02-04T05:38:03.039Z,7.87
2019-02-04T05:40:33.599Z,8.40
2019-02-04T05:43:03.830Z,8.50
2019-02-04T05:45:33.888Z,8.37
2019-02-04T05:48:04.003Z,8.80
2019-02-04T05:50:34.052Z,8.10
2019-02-04T05:53:04.165Z,8.23
2019-02-04T05:55:34.188Z,9.00
2019-02-04T05:58:04.308Z,8.40
2019-02-04T06:00:38.318Z,8.63
2019-02-04T06:03:08.554Z,8.17
2019-02-04T06:05:39.791Z,8.73
2019-02-04T06:08:10.021Z,8.53
2019-02-04T06:10:40.027Z,8.60
2019-02-04T06:13:10.267Z,8.17
2019-02-04T06:15:40.376Z,8.73
2019-02-04T06:18:10.658Z,9.67
2019-02-04T06:20:40.776Z,9.37
2019-02-04T06:23:11.167Z,9.87
2019-02-04T06:25:41.322Z,9.37
2019-02-04T06:28:11.342Z,9.27
2019-02-04T06:30:41.439Z,9.20
2019-02-04T06:33:12.744Z,9.00
2019-02-04T06:35:42.924Z,8.97
2019-02-04T06:38:13.144Z,9.13
2019-02-04T06:40:43.430Z,9.40
2019-02-04T06:43:13.673Z,8.90
2019-02-04T06:45:45.901Z,8.63
2019-02-04T06:48:15.667Z,7.73
2019-02-04T06:50:45.854Z,8.17
2019-02-04T06:53:15.957Z,7.70
2019-02-04T06:55:46.007Z,7.57
2019-02-04T06:58:16.245Z,7.43
2019-02-04T07:00:46.813Z,6.90
2019-02-04T07:03:17.583Z,6.57
2019-02-04T07:05:47.746Z,6.97
2019-02-04T07:08:17.862Z,6.70
2019-02-04T07:10:47.943Z,6.87
2019-02-04T07:13:18.094Z,6.53
2019-02-04T07:15:48.144Z,6.23
2019-02-04T07:18:18.638Z,6.47
2019-02-04T07:20:48.782Z,6.50
2019-02-04T07:23:18.808Z,6.07
2019-02-04T07:25:48.898Z,6.03
2019-02-04T07:28:19.416Z,6.07
2019-02-04T07:30:49.502Z,6.53
2019-02-04T07:33:19.710Z,6.83
2019-02-04T07:35:49.826Z,6.20
2019-02-04T07:38:19.978Z,6.20
2019-02-04T07:40:50.014Z,6.90
2019-02-04T07:43:20.310Z,6.70
2019-02-04T07:45:50.485Z,7.00
2019-02-04T07:48:20.658Z,6.60
2019-02-04T07:50:50.816Z,6.67
2019-02-04T07:53:20.996Z,6.57
2019-02-04T07:55:51.426Z,6.30
2019-02-04T07:58:21.519Z,6.67
2019-02-04T08:00:51.594Z,6.63
2019-02-04T08:03:21.946Z,6.83
2019-02-04T08:05:52.071Z,7.17
2019-02-04T08:08:22.206Z,7.83
2019-02-04T08:10:52.481Z,7.27
2019-02-04T08:13:22.640Z,7.23
2019-02-04T08:15:52.792Z,6.93
2019-02-04T08:18:22.996Z,7.77
2019-02-04T08:20:53.172Z,7.77
2019-02-04T08:23:23.691Z,7.80
2019-02-04T08:25:53.777Z,7.93
2019-02-04T08:28:23.831Z,7.80
2019-02-04T08:30:54.038Z,8.03
2019-02-04T08:33:24.267Z,7.83
2019-02-04T08:35:54.380Z,8.40
2019-02-04T08:38:24.577Z,8.17
2019-02-04T08:40:54.770Z,8.20
2019-02-04T08:43:24.940Z,8.30
2019-02-04T08:45:54.938Z,8.70
2019-02-04T08:48:25.145Z,8.70
2019-02-04T08:50:55.254Z,9.57
2019-02-04T08:53:27.342Z,8.80
2019-02-04T08:55:57.510Z,9.07
2019-02-04T08:58:27.721Z,9.13
2019-02-04T09:00:57.838Z,9.00
2019-02-04T09:03:28.059Z,9.57
2019-02-04T09:06:00.238Z,9.00
2019-02-04T09:08:30.359Z,9.17
2019-02-04T09:11:00.584Z,9.57
2019-02-04T09:13:30.732Z,9.27
2019-02-04T09:16:00.923Z,10.20
2019-02-04T09:18:31.106Z,9.37
2019-02-04T09:21:02.901Z,9.20
2019-02-04T09:23:33.082Z,9.37
2019-02-04T09:26:03.246Z,9.30
2019-02-04T09:28:33.485Z,9.53
2019-02-04T09:31:03.652Z,9.70
2019-02-04T09:33:34.330Z,9.80
2019-02-04T09:36:04.655Z,10.10
2019-02-04T09:38:36.095Z,9.53
2019-02-04T09:41:06.435Z,9.70
2019-02-04T09:43:36.578Z,9.70
2019-02-04T09:46:06.774Z,9.20
2019-02-04T09:48:37.021Z,8.97
2019-02-04T09:51:07.192Z,8.93
2019-02-04T09:53:37.733Z,8.97
2019-02-04T09:56:08.028Z,9.10
2019-02-04T09:58:38.249Z,8.23
2019-02-04T10:01:08.350Z,8.90
2019-02-04T10:03:38.546Z,9.37
2019-02-04T10:06:08.735Z,9.30
2019-02-04T10:08:38.942Z,8.43
2019-02-04T10:11:09.113Z,9.10
2019-02-04T10:13:39.338Z,9.00
2019-02-04T10:16:11.584Z,9.00
2019-02-04T10:18:41.354Z,8.50
2019-02-04T10:21:11.595Z,8.70
2019-02-04T10:23:56.151Z,8.37
2019-02-04T10:26:38.105Z,8.67
2019-02-04T10:29:21.359Z,8.30
2019-02-04T10:32:03.158Z,7.40
2019-02-04T10:34:45.156Z,8.50
2019-02-04T10:37:26.922Z,7.67
2019-02-04T10:40:08.717Z,7.33
2019-02-04T10:42:50.731Z,7.47
2019-02-04T10:45:32.712Z,8.00
2019-02-04T10:48:14.470Z,7.73
2019-02-04T10:50:56.528Z,7.53
2019-02-04T10:53:38.430Z,7.67
2019-02-04T10:56:20.670Z,7.47
2019-02-04T10:59:02.524Z,7.70
2019-02-04T11:01:45.122Z,7.93
2019-02-04T11:04:27.303Z,7.80
2019-02-04T11:07:09.196Z,8.13
2019-02-04T11:09:50.977Z,8.07
2019-02-04T11:12:32.878Z,7.80
2019-02-04T11:15:14.676Z,7.00
2019-02-04T11:17:56.751Z,7.80
2019-02-04T11:20:38.586Z,7.10
2019-02-04T11:23:21.012Z,7.20
2019-02-04T11:25:54.794Z,7.30
2019-02-04T11:28:28.590Z,7.00
2019-02-04T11:31:15.028Z,7.57
2019-02-04T11:33:56.158Z,7.50
2019-02-04T11:36:30.244Z,7.43
2019-02-04T11:39:12.761Z,7.43
2019-02-04T11:41:49.471Z,7.30
2019-02-04T11:44:24.874Z,7.00
2019-02-04T11:47:01.764Z,7.07
2019-02-04T11:49:40.676Z,6.83
2019-02-04T11:52:16.264Z,7.13
2019-02-04T11:54:51.064Z,6.80
2019-02-04T11:57:23.939Z,7.47
2019-02-04T12:00:04.521Z,6.60
2019-02-04T12:02:37.914Z,6.77
2019-02-04T12:05:14.069Z,6.67
2019-02-04T12:07:52.073Z,6.70
2019-02-04T12:10:34.729Z,6.90
2019-02-04T12:13:12.976Z,6.30
2019-02-04T12:15:51.588Z,6.87
2019-02-04T12:18:23.678Z,6.37
2019-02-04T12:20:59.326Z,6.63
2019-02-04T12:23:29.802Z,6.50
2019-02-04T12:26:00.284Z,6.40
2019-02-04T12:28:38.581Z,6.77
2019-02-04T12:31:09.479Z,7.00
2019-02-04T12:33:42.260Z,6.50
2019-02-04T12:36:12.764Z,6.93
2019-02-04T12:38:43.319Z,7.60
2019-02-04T12:41:13.885Z,6.90
2019-02-04T12:43:44.575Z,7.73
2019-02-04T12:46:17.972Z,7.40
2019-02-04T12:48:51.353Z,6.80
2019-02-04T12:51:32.945Z,6.67
2019-02-04T12:53:56.842Z,6.73
2019-02-04T12:56:29.293Z,7.03
2019-02-04T12:59:01.864Z,7.10
2019-02-04T13:01:34.101Z,6.87
2019-02-04T13:04:07.693Z,6.83
2019-02-04T13:06:38.499Z,6.50
2019-02-04T13:09:09.804Z,6.40
2019-02-04T13:11:40.001Z,6.70
2019-02-04T13:14:10.579Z,6.43
2019-02-04T13:16:42.185Z,7.07
2019-02-04T13:19:12.328Z,6.90
2019-02-04T13:21:45.589Z,6.53
2019-02-04T13:24:14.180Z,6.50
2019-02-04T13:26:44.250Z,6.73
2019-02-04T13:29:14.282Z,6.23
2019-02-04T13:31:44.481Z,6.20
2019-02-04T13:34:14.579Z,6.00
2019-02-04T13:36:45.013Z,5.60
2019-02-04T13:39:15.122Z,6.37
2019-02-04T13:41:45.201Z,6.03
2019-02-04T13:44:15.547Z,5.73
2019-02-04T13:46:45.666Z,6.07
2019-02-04T13:49:15.895Z,6.37
2019-02-04T13:51:56.848Z,6.30
2019-02-04T13:54:17.983Z,6.03
2019-02-04T13:56:48.158Z,6.53
2019-02-04T13:59:18.324Z,6.03
2019-02-04T14:01:48.563Z,5.83
2019-02-04T14:04:18.996Z,5.60
2019-02-04T14:06:49.081Z,6.00
2019-02-04T14:09:22.436Z,6.10
2019-02-04T14:11:52.629Z,5.50
2019-02-04T14:14:22.675Z,5.70
2019-02-04T14:16:52.992Z,5.47
2019-02-04T14:19:23.062Z,5.43
2019-02-04T14:21:53.195Z,5.90
2019-02-04T14:24:23.430Z,5.70
2019-02-04T14:26:53.506Z,5.60
2019-02-04T14:29:24.038Z,5.63
2019-02-04T14:31:54.212Z,5.50
2019-02-04T14:34:24.967Z,5.70
2019-02-04T14:36:55.208Z,5.47
2019-02-04T14:39:25.450Z,4.80
2019-02-04T14:41:55.617Z,5.50
2019-02-04T14:44:39.175Z,5.27
2019-02-04T14:47:32.739Z,5.40
2019-02-04T14:50:21.553Z,5.17
2019-02-04T14:53:41.767Z,5.13
2019-02-04T14:56:39.614Z,4.53
2019-02-04T14:59:28.335Z,4.70
2019-02-04T15:02:11.412Z,5.00
2019-02-04T15:05:28.538Z,4.90
2019-02-04T15:08:33.488Z,4.90
2019-02-04T15:11:44.621Z,4.87
2019-02-04T15:14:29.708Z,5.30
2019-02-04T15:17:10.894Z,5.33
2019-02-04T15:20:20.989Z,5.07
2019-02-04T15:23:37.254Z,5.20
2019-02-04T15:26:30.449Z,5.30
2019-02-04T15:29:21.813Z,6.17
2019-02-04T15:32:03.726Z,5.70
2019-02-04T15:35:14.010Z,5.80
2019-02-04T15:38:09.507Z,5.73
2019-02-04T15:41:13.407Z,5.73
2019-02-04T15:44:09.803Z,6.33
2019-02-04T15:46:48.059Z,6.23
2019-02-04T15:49:55.982Z,6.30
2019-02-04T15:52:26.149Z,6.70
2019-02-04T15:54:56.260Z,6.97
2019-02-04T15:57:26.296Z,6.67
2019-02-04T15:59:56.499Z,6.90
2019-02-04T16:02:26.704Z,6.70
2019-02-04T16:04:56.902Z,6.17
2019-02-04T16:07:26.988Z,6.43
2019-02-04T16:09:57.600Z,6.13
2019-02-04T16:12:27.637Z,6.13
2019-02-04T16:14:57.769Z,5.63
2019-02-04T16:17:27.889Z,6.03
2019-02-04T16:19:57.992Z,5.83
2019-02-04T16:22:57.863Z,5.50
2019-02-04T16:25:41.238Z,5.77
2019-02-04T16:28:23.194Z,5.47
2019-02-04T16:31:05.264Z,6.13
2019-02-04T16:37:25.490Z,5.43
2019-02-04T16:40:40.348Z,5.03
2019-02-04T16:43:55.874Z,4.80
2019-02-04T16:50:36.495Z,5.33
2019-02-04T16:53:10.470Z,4.93
2019-02-04T16:55:38.562Z,5.20
2019-02-04T16:58:08.798Z,5.00
2019-02-04T17:00:39.055Z,4.87
2019-02-04T17:03:09.121Z,4.40
2019-02-04T17:05:39.308Z,4.50
2019-02-04T17:08:09.544Z,4.43
2019-02-04T17:10:41.794Z,4.80
2019-02-04T17:13:14.134Z,4.80
2019-02-04T17:15:44.229Z,5.00
2019-02-04T17:18:14.341Z,5.17
2019-02-04T17:20:44.837Z,4.90
2019-02-04T17:23:21.916Z,5.27
2019-02-04T17:25:46.759Z,4.70
2019-02-04T17:28:17.036Z,4.80
2019-02-04T17:30:47.159Z,5.07
2019-02-04T17:33:20.513Z,5.27
2019-02-04T17:35:50.634Z,4.90
2019-02-04T17:38:21.291Z,5.17
2019-02-04T17:40:51.481Z,5.20
2019-02-04T17:43:21.577Z,4.57
2019-02-04T17:45:51.773Z,4.90
2019-02-04T17:48:23.248Z,5.47
2019-02-04T17:50:53.358Z,5.67
2019-02-04T17:53:33.921Z,5.70
2019-02-04T17:55:55.239Z,5.67
2019-02-04T17:58:25.283Z,5.80
2019-02-04T18:00:55.788Z,5.53
2019-02-04T18:03:26.090Z,5.90
2019-02-04T18:05:56.489Z,6.03
2019-02-04T18:08:26.591Z,5.47
2019-02-04T18:10:56.655Z,6.23
2019-02-04T18:13:26.750Z,5.90
2019-02-04T18:15:56.925Z,6.20
2019-02-04T18:18:27.084Z,5.60
2019-02-04T18:20:57.256Z,5.90
2019-02-04T18:23:27.459Z,6.13
2019-02-04T18:25:57.555Z,6.13
2019-02-04T18:28:27.715Z,5.73
2019-02-04T18:30:57.821Z,6.30
2019-02-04T18:33:28.040Z,5.90
2019-02-04T18:35:58.217Z,6.13
2019-02-04T18:38:28.417Z,6.30
2019-02-04T18:40:58.913Z,6.07
2019-02-04T18:43:28.958Z,6.00
2019-02-04T18:45:59.062Z,6.50
2019-02-04T18:48:32.237Z,6.30
2019-02-04T18:51:05.147Z,6.77
2019-02-04T18:53:35.242Z,6.40
2019-02-04T18:56:06.289Z,7.03
2019-02-04T18:58:36.425Z,8.00
2019-02-04T19:01:06.869Z,8.00
2019-02-04T19:03:37.183Z,7.87
2019-02-04T19:06:07.471Z,7.47
2019-02-04T19:08:41.020Z,8.33
2019-02-04T19:11:12.763Z,8.87
2019-02-04T19:13:42.975Z,8.27
2019-02-04T19:16:13.108Z,8.50
2019-02-04T19:18:43.277Z,8.73
2019-02-04T19:21:13.420Z,9.13
2019-02-04T19:23:44.115Z,8.83
2019-02-04T19:26:14.201Z,9.33
2019-02-04T19:28:44.359Z,9.27
2019-02-04T19:31:20.752Z,9.13
2019-02-04T19:33:50.844Z,8.90
2019-02-04T19:36:21.027Z,9.17
2019-02-04T19:38:51.187Z,9.43
2019-02-04T19:41:21.296Z,8.50
2019-02-04T19:43:53.244Z,8.87
2019-02-04T19:46:23.237Z,9.63
2019-02-04T19:48:53.460Z,9.03
2019-02-04T19:51:23.597Z,9.47
2019-02-04T19:53:53.831Z,8.30
2019-02-04T19:56:23.833Z,8.87
2019-02-04T19:58:53.952Z,8.07
2019-02-04T20:01:24.060Z,8.17
2019-02-04T20:03:54.215Z,9.03
2019-02-04T20:06:24.479Z,7.93
2019-02-04T20:08:54.597Z,8.70
2019-02-04T20:11:24.642Z,8.47
2019-02-04T20:13:54.803Z,8.60
2019-02-04T20:16:24.982Z,8.57
2019-02-04T20:18:55.410Z,7.97
2019-02-04T20:21:25.498Z,8.30
2019-02-04T20:23:55.547Z,8.90
2019-02-04T20:26:25.676Z,8.23
2019-02-04T20:28:55.781Z,8.20
2019-02-04T20:31:25.996Z,8.93
2019-02-04T20:33:56.318Z,7.70
2019-02-04T20:36:26.554Z,8.50
2019-02-04T20:38:56.894Z,9.10
2019-02-04T20:41:29.105Z,8.07
2019-02-04T20:43:59.168Z,8.00
2019-02-04T20:46:29.669Z,7.73
2019-02-04T20:48:59.873Z,8.27
2019-02-04T20:51:29.949Z,8.40
2019-02-04T20:54:00.018Z,8.00
2019-02-04T20:56:30.063Z,8.20
2019-02-04T20:59:00.123Z,7.87
2019-02-04T21:01:30.313Z,7.93
2019-02-04T21:04:01.422Z,8.33
2019-02-04T21:06:31.602Z,7.63
2019-02-04T21:09:01.767Z,7.70
2019-02-04T21:11:31.933Z,7.87
2019-02-04T21:14:02.906Z,7.63
2019-02-04T21:16:33.374Z,8.17
2019-02-04T21:19:03.851Z,8.17
2019-02-04T21:21:33.932Z,7.80
2019-02-04T21:24:04.298Z,7.70
2019-02-04T21:26:34.339Z,8.17
2019-02-04T21:29:04.672Z,7.87
2019-02-04T21:31:34.798Z,8.87
2019-02-04T21:34:05.110Z,8.47
2019-02-04T21:36:35.222Z,8.17
2019-02-04T21:39:08.320Z,7.80
2019-02-04T21:41:38.700Z,8.37
2019-02-04T21:44:08.738Z,8.20
2019-02-04T21:46:38.922Z,7.13
2019-02-04T21:49:11.858Z,8.23
2019-02-04T21:51:41.976Z,7.80
2019-02-04T21:54:12.166Z,8.67
2019-02-04T21:56:42.363Z,8.03
2019-02-04T21:59:12.599Z,7.90
2019-02-04T22:01:42.674Z,8.83
2019-02-04T22:04:14.037Z,9.23
2019-02-04T22:06:44.128Z,8.70
2019-02-04T22:09:14.302Z,8.60
2019-02-04T22:11:44.521Z,9.17
2019-02-04T22:14:14.951Z,8.80
2019-02-04T22:16:44.983Z,8.13
2019-02-04T22:19:16.397Z,9.10
2019-02-04T22:21:46.519Z,8.37
2019-02-04T22:24:17.135Z,8.23
2019-02-04T22:26:47.254Z,8.53
2019-02-04T22:29:17.715Z,8.67
2019-02-04T22:31:47.906Z,8.97
2019-02-04T22:34:18.454Z,8.50
2019-02-04T22:36:48.529Z,8.67
2019-02-04T22:39:18.773Z,8.57
2019-02-04T22:41:48.893Z,8.17
2019-02-04T22:44:19.105Z,8.57
2019-02-04T22:46:49.391Z,8.77
2019-02-04T22:49:19.519Z,8.50
2019-02-04T22:51:50.036Z,8.03
2019-02-04T22:54:20.160Z,7.90
2019-02-04T22:56:50.269Z,8.23
2019-02-04T22:59:20.396Z,8.30
2019-02-04T23:01:53.534Z,7.90
2019-02-04T23:04:23.590Z,8.17
2019-02-04T23:06:53.871Z,8.03
2019-02-04T23:09:24.068Z,7.73
2019-02-04T23:11:54.190Z,8.23
2019-02-04T23:14:24.433Z,7.77
2019-02-04T23:16:54.565Z,8.43
2019-02-04T23:19:24.978Z,7.73
2019-02-04T23:21:55.019Z,7.47
2019-02-04T23:24:25.219Z,7.77
2019-02-04T23:26:55.500Z,7.90
2019-02-04T23:29:25.717Z,8.43
2019-02-04T23:31:56.189Z,7.87
2019-02-04T23:34:26.309Z,7.63
2019-02-04T23:36:56.406Z,8.00
2019-02-04T23:39:26.526Z,8.13
2019-02-04T23:41:58.373Z,7.60
2019-02-04T23:44:28.334Z,7.80
2019-02-04T23:46:58.434Z,7.73
2019-02-04T23:49:28.609Z,8.23
2019-02-04T23:52:02.265Z,8.73
2019-02-04T23:54:32.420Z,8.90
2019-02-04T23:57:02.764Z,9.17
2019-02-04T23:59:33.171Z,8.63
